Apalachia Observed Data For Previous 48 Hours

Caption
Day and Hour Reservoir Elevation (behind dam)* Tailwater Elevation (below dam)* Average Hourly Discharge*
12/16/2018 2 AM EST 1,276.70 841.43 5,355
12/16/2018 3 AM EST 1,276.64 841.40 5,351
12/16/2018 4 AM EST 1,276.54 841.43 5,347
12/16/2018 5 AM EST 1,276.48 841.42 5,341
12/16/2018 6 AM EST 1,276.44 841.39 5,336
12/16/2018 7 AM EST 1,276.37 841.41 5,340
12/16/2018 8 AM EST 1,276.31 841.39 5,328
12/16/2018 9 AM EST 1,276.30 841.39 5,330
12/16/2018 10 AM EST 1,276.58 841.38 5,341
12/16/2018 11 AM EST 1,276.75 841.38 5,349
12/16/2018 12 PM EST 1,276.75 841.40 5,362
12/16/2018 1 PM EST 1,276.72 841.38 5,358
12/16/2018 2 PM EST 1,276.71 841.38 5,361
12/16/2018 3 PM EST 1,276.57 841.35 5,347
12/16/2018 4 PM EST 1,276.52 841.39 5,349
12/16/2018 5 PM EST 1,276.44 841.40 5,336
12/16/2018 6 PM EST 1,276.39 841.38 5,342
12/16/2018 7 PM EST 1,276.50 841.40 5,336
12/16/2018 8 PM EST 1,276.66 841.37 5,349
12/16/2018 9 PM EST 1,276.81 841.38 5,354
12/16/2018 10 PM EST 1,276.97 841.37 5,369
12/16/2018 11 PM EST 1,277.08 841.40 5,371
12/17/2018 12 AM EST 1,277.05 841.41 5,379
12/17/2018 1 AM EST 1,276.91 841.42 5,368
12/17/2018 2 AM EST 1,276.84 841.40 5,366
12/17/2018 3 AM EST 1,276.80 841.38 5,362
12/17/2018 4 AM EST 1,276.72 841.39 5,356
12/17/2018 5 AM EST 1,276.63 841.39 5,353
12/17/2018 6 AM EST 1,276.57 841.39 5,346
12/17/2018 7 AM EST 1,276.56 841.40 5,351
12/17/2018 8 AM EST 1,276.64 841.38 5,347
12/17/2018 9 AM EST 1,276.81 841.39 5,358
12/17/2018 10 AM EST 1,277.08 841.39 5,366
12/17/2018 11 AM EST 1,277.05 841.38 5,379
12/17/2018 12 PM EST 1,276.95 841.38 5,368
12/17/2018 1 PM EST 1,276.91 841.38 5,372
12/17/2018 2 PM EST 1,276.78 841.39 5,359
12/17/2018 3 PM EST 1,276.72 841.40 5,362
12/17/2018 4 PM EST 1,276.64 841.39 5,349
12/17/2018 5 PM EST 1,276.61 841.41 5,352
12/17/2018 6 PM EST 1,276.50 841.38 5,343
12/17/2018 7 PM EST 1,276.66 841.40 5,349
12/17/2018 8 PM EST 1,276.79 841.36 5,353
12/17/2018 9 PM EST 1,276.98 841.40 5,368
12/17/2018 10 PM EST 1,277.05 841.38 5,373
12/17/2018 11 PM EST 1,276.96 841.38 5,368
12/18/2018 12 AM EST 1,276.84 841.39 5,368
12/18/2018 1 AM EST 1,276.78 841.39 5,357
12/18/2018 2 AM EST 1,276.52 841.38 5,354
12/18/2018 3 AM EST 1,276.52 841.38 5,335
12/18/2018 4 AM EST 1,275.55 841.39 5,315
12/18/2018 5 AM EST 1,275.31 841.40 5,273
12/18/2018 6 AM EST 1,274.86 841.40 5,256
12/18/2018 7 AM EST 1,274.43 841.37 5,224

Elevations are in feet above sea level. Discharges are in cubic feet per second and are reported at the end of the hour.